createdAt,value
2023-12-31T00:01:57.599Z,7.40
2023-12-31T00:04:33.624Z,7.40
2023-12-31T00:07:09.719Z,7.40
2023-12-31T00:09:45.629Z,7.40
2023-12-31T00:12:21.525Z,7.40
2023-12-31T00:14:57.591Z,7.30
2023-12-31T00:17:33.487Z,7.30
2023-12-31T00:20:09.894Z,7.20
2023-12-31T00:22:45.958Z,7.20
2023-12-31T00:25:22.393Z,7.20
2023-12-31T00:27:58.369Z,7.10
2023-12-31T00:30:35.690Z,7.10
2023-12-31T00:33:11.737Z,7.10
2023-12-31T00:35:48.944Z,7.00
2023-12-31T00:38:26.219Z,7.00
2023-12-31T00:41:02.241Z,7.00
2023-12-31T00:43:38.209Z,6.90
2023-12-31T00:46:17.740Z,6.90
2023-12-31T00:48:53.745Z,6.90
2023-12-31T00:51:29.878Z,6.80
2023-12-31T00:54:06.673Z,6.80
2023-12-31T00:56:42.608Z,6.80
2023-12-31T00:59:18.598Z,6.80
2023-12-31T01:01:56.152Z,6.70
2023-12-31T01:04:32.193Z,6.70
2023-12-31T01:07:08.281Z,6.70
2023-12-31T01:09:44.237Z,6.70
2023-12-31T01:12:20.176Z,6.70
2023-12-31T01:14:56.208Z,6.70
2023-12-31T01:17:32.277Z,6.70
2023-12-31T01:20:09.787Z,6.60
2023-12-31T01:22:46.049Z,6.60
2023-12-31T01:25:22.669Z,6.60
2023-12-31T01:27:59.046Z,6.60
2023-12-31T01:30:35.037Z,6.50
2023-12-31T01:33:11.248Z,6.50
2023-12-31T01:35:47.198Z,6.50
2023-12-31T01:38:24.342Z,6.40
2023-12-31T01:41:00.585Z,6.40
2023-12-31T01:43:40.080Z,6.40
2023-12-31T01:46:28.633Z,6.40
2023-12-31T01:49:05.659Z,6.40
2023-12-31T01:51:43.100Z,6.40
2023-12-31T01:54:19.976Z,6.30
2023-12-31T01:56:57.507Z,6.30
2023-12-31T01:59:33.535Z,6.30
2023-12-31T02:02:09.504Z,6.30
2023-12-31T02:04:45.511Z,6.20
2023-12-31T02:07:21.546Z,6.20
2023-12-31T02:09:57.492Z,6.20
2023-12-31T02:12:33.624Z,6.20
2023-12-31T02:15:09.947Z,6.10
2023-12-31T02:17:46.031Z,6.10
2023-12-31T02:20:21.982Z,6.10
2023-12-31T02:23:01.734Z,6.00
2023-12-31T02:25:40.924Z,6.00
2023-12-31T02:28:17.248Z,6.00
2023-12-31T02:30:53.232Z,5.90
2023-12-31T02:33:29.256Z,5.90
2023-12-31T02:36:05.576Z,5.90
2023-12-31T02:38:41.518Z,5.90
2023-12-31T02:41:17.609Z,5.90
2023-12-31T02:43:53.639Z,5.90
2023-12-31T02:46:30.306Z,5.90
2023-12-31T02:49:07.588Z,6.00
2023-12-31T02:51:43.786Z,6.00
2023-12-31T02:54:19.845Z,6.00
2023-12-31T02:56:55.792Z,6.10
2023-12-31T02:59:31.710Z,6.20
2023-12-31T03:02:07.639Z,6.20
2023-12-31T03:04:43.865Z,6.30
2023-12-31T03:07:19.845Z,6.30
2023-12-31T03:09:55.784Z,6.30
2023-12-31T03:12:31.711Z,6.40
2023-12-31T03:15:10.526Z,6.40
2023-12-31T03:17:46.715Z,6.40
2023-12-31T03:20:22.926Z,6.50
2023-12-31T03:22:58.879Z,6.60
2023-12-31T03:25:34.820Z,6.60
2023-12-31T03:28:10.793Z,6.60
2023-12-31T03:30:48.269Z,6.60
2023-12-31T03:33:24.614Z,6.70
2023-12-31T03:36:00.716Z,6.70
2023-12-31T03:38:36.632Z,6.70
2023-12-31T03:41:12.541Z,6.70
2023-12-31T03:43:49.034Z,6.80
2023-12-31T03:46:24.996Z,6.80
2023-12-31T03:49:01.008Z,6.80
2023-12-31T03:51:36.968Z,6.80
2023-12-31T03:54:13.142Z,6.90
2023-12-31T03:56:49.046Z,6.90
2023-12-31T03:59:24.998Z,6.90
2023-12-31T04:02:00.981Z,6.90
2023-12-31T04:04:36.970Z,6.90
2023-12-31T04:07:13.590Z,6.90
2023-12-31T04:09:49.527Z,6.90
2023-12-31T04:12:25.471Z,6.90
2023-12-31T04:15:01.426Z,6.80
2023-12-31T04:17:37.452Z,6.80
2023-12-31T04:20:13.688Z,6.80
2023-12-31T04:22:49.792Z,6.80
2023-12-31T04:25:25.766Z,6.80
2023-12-31T04:28:02.327Z,6.80
2023-12-31T04:30:41.632Z,6.80
2023-12-31T04:33:17.662Z,6.80
2023-12-31T04:35:53.943Z,6.70
2023-12-31T04:38:29.873Z,6.70
2023-12-31T04:41:07.065Z,6.70
2023-12-31T04:43:43.038Z,6.70
2023-12-31T04:46:20.475Z,6.70
2023-12-31T04:48:56.509Z,6.70
2023-12-31T04:51:32.399Z,6.70
2023-12-31T04:54:08.854Z,6.70
2023-12-31T04:56:44.831Z,6.70
2023-12-31T04:59:20.822Z,6.70
2023-12-31T05:01:56.824Z,6.60
2023-12-31T05:04:32.807Z,6.70
2023-12-31T05:07:12.621Z,6.70
2023-12-31T05:09:48.575Z,6.70
2023-12-31T05:12:24.503Z,6.70
2023-12-31T05:15:00.392Z,6.70
2023-12-31T05:17:36.837Z,6.70
2023-12-31T05:20:13.120Z,6.70
2023-12-31T05:22:49.098Z,6.70
2023-12-31T05:25:26.171Z,6.70
2023-12-31T05:28:02.126Z,6.70
2023-12-31T05:30:42.370Z,6.70
2023-12-31T05:33:18.393Z,6.70
2023-12-31T05:35:54.375Z,6.70
2023-12-31T05:38:30.639Z,6.80
2023-12-31T05:41:06.590Z,6.80
2023-12-31T05:43:43.523Z,6.70
2023-12-31T05:46:19.527Z,6.80
2023-12-31T05:48:55.645Z,6.70
2023-12-31T05:51:31.683Z,6.70
2023-12-31T05:54:07.828Z,6.70
2023-12-31T05:56:43.856Z,6.70
2023-12-31T05:59:19.844Z,6.70
2023-12-31T06:01:55.977Z,6.70
2023-12-31T06:04:31.950Z,6.70
2023-12-31T06:07:07.869Z,6.70
2023-12-31T06:09:43.876Z,6.70
2023-12-31T06:12:19.965Z,6.70
2023-12-31T06:14:56.143Z,6.80
2023-12-31T06:17:32.244Z,6.80
2023-12-31T06:20:08.822Z,6.80
2023-12-31T06:22:44.824Z,6.90
2023-12-31T06:25:21.190Z,6.80
2023-12-31T06:27:58.240Z,6.80
2023-12-31T06:30:34.310Z,6.80
2023-12-31T06:33:10.451Z,6.80
2023-12-31T06:35:46.398Z,6.80
2023-12-31T06:38:22.363Z,6.80
2023-12-31T06:40:58.328Z,6.90
2023-12-31T06:43:37.509Z,6.90
2023-12-31T06:46:13.999Z,6.90
2023-12-31T06:48:49.999Z,6.90
2023-12-31T06:51:25.956Z,6.90
2023-12-31T06:54:02.006Z,6.90
2023-12-31T06:56:38.255Z,7.00
2023-12-31T06:59:14.727Z,7.00
2023-12-31T07:01:50.782Z,7.00
2023-12-31T07:04:27.660Z,7.00
2023-12-31T07:07:03.748Z,7.00
2023-12-31T07:09:39.647Z,7.10
2023-12-31T07:12:15.536Z,7.10
2023-12-31T07:14:51.454Z,7.10
2023-12-31T07:17:30.226Z,7.10
2023-12-31T07:20:07.771Z,7.10
2023-12-31T07:22:43.934Z,7.20
2023-12-31T07:25:19.984Z,7.20
2023-12-31T07:27:56.420Z,7.30
2023-12-31T07:30:32.396Z,7.30
2023-12-31T07:33:08.601Z,7.40
2023-12-31T07:35:44.620Z,7.40
2023-12-31T07:38:20.587Z,7.50
2023-12-31T07:40:56.566Z,7.50
2023-12-31T07:43:33.314Z,7.50
2023-12-31T07:46:10.758Z,7.60
2023-12-31T07:48:46.727Z,7.70
2023-12-31T07:51:22.713Z,7.70
2023-12-31T07:53:58.623Z,7.70
2023-12-31T07:56:34.558Z,7.60
2023-12-31T07:59:10.531Z,7.70
2023-12-31T08:01:46.968Z,7.70
2023-12-31T08:04:23.409Z,7.70
2023-12-31T08:06:59.374Z,7.70
2023-12-31T08:09:35.463Z,7.70
2023-12-31T08:12:11.466Z,7.70
2023-12-31T08:14:47.387Z,7.60
2023-12-31T08:17:25.000Z,7.70
2023-12-31T08:20:01.213Z,7.70
2023-12-31T08:22:37.302Z,7.80
2023-12-31T08:25:13.289Z,7.80
2023-12-31T08:27:49.387Z,7.90
2023-12-31T08:30:25.557Z,7.90
2023-12-31T08:33:01.941Z,8.00
2023-12-31T08:35:38.317Z,8.00
2023-12-31T08:38:14.253Z,8.00
2023-12-31T08:40:50.382Z,8.00
2023-12-31T08:43:26.485Z,8.00
2023-12-31T08:46:02.549Z,8.00
2023-12-31T08:48:38.560Z,8.10
2023-12-31T08:51:14.595Z,8.10
2023-12-31T08:53:51.263Z,8.10
2023-12-31T08:56:27.165Z,8.20
2023-12-31T08:59:03.939Z,8.30
2023-12-31T09:01:39.880Z,8.30
2023-12-31T09:04:15.838Z,8.30
2023-12-31T09:06:52.133Z,8.30
2023-12-31T09:09:28.179Z,8.40
2023-12-31T09:12:04.630Z,8.40
2023-12-31T09:14:40.600Z,8.50
2023-12-31T09:17:16.486Z,8.50
2023-12-31T09:19:58.577Z,8.50
2023-12-31T09:22:34.693Z,8.50
2023-12-31T09:25:10.717Z,8.60
2023-12-31T09:27:46.848Z,8.70
2023-12-31T09:30:23.424Z,8.70
2023-12-31T09:32:59.928Z,8.70
2023-12-31T09:35:36.215Z,8.70
2023-12-31T09:38:12.227Z,8.70
2023-12-31T09:40:48.991Z,8.70
2023-12-31T09:43:26.258Z,8.80
2023-12-31T09:46:05.670Z,8.80
2023-12-31T09:48:41.859Z,8.90
2023-12-31T09:51:22.569Z,9.00
2023-12-31T09:53:59.604Z,9.00
2023-12-31T09:56:36.293Z,9.10
2023-12-31T09:59:13.592Z,9.10
2023-12-31T10:01:50.412Z,9.20
2023-12-31T10:04:26.606Z,9.20
2023-12-31T10:07:04.064Z,9.30
2023-12-31T10:09:42.311Z,9.40
2023-12-31T10:12:18.510Z,9.40
2023-12-31T10:14:55.974Z,9.40
2023-12-31T10:17:33.387Z,9.40
2023-12-31T10:20:09.769Z,9.30
2023-12-31T10:22:45.811Z,9.30
2023-12-31T10:25:25.627Z,9.30
2023-12-31T10:28:01.817Z,9.20
2023-12-31T10:30:41.404Z,9.10
2023-12-31T10:33:18.830Z,9.10
2023-12-31T10:36:08.197Z,9.10
2023-12-31T10:38:48.193Z,9.20
2023-12-31T10:41:26.406Z,9.30
2023-12-31T10:44:07.136Z,9.40
2023-12-31T10:46:44.040Z,9.50
2023-12-31T10:49:23.976Z,9.60
2023-12-31T10:52:03.853Z,9.60
2023-12-31T10:54:53.042Z,9.80
2023-12-31T10:57:29.358Z,9.80
2023-12-31T11:00:06.232Z,9.90
2023-12-31T11:02:43.646Z,10.00
2023-12-31T11:05:23.008Z,10.00
2023-12-31T11:08:01.546Z,10.10
2023-12-31T11:10:37.597Z,10.10
2023-12-31T11:13:15.638Z,10.20
2023-12-31T11:15:56.633Z,10.20
2023-12-31T11:19:06.471Z,10.20
2023-12-31T11:22:05.448Z,10.10
2023-12-31T11:24:42.926Z,10.20
2023-12-31T11:27:18.949Z,10.30
2023-12-31T11:29:54.911Z,10.30
2023-12-31T11:32:35.997Z,10.20
2023-12-31T11:35:12.373Z,10.20
2023-12-31T11:37:48.392Z,10.20
2023-12-31T11:40:24.362Z,10.00
2023-12-31T11:43:01.626Z,9.80
2023-12-31T11:45:46.866Z,9.60
2023-12-31T11:48:26.990Z,9.60
2023-12-31T11:51:03.323Z,9.40
2023-12-31T11:53:49.882Z,9.10
2023-12-31T11:56:28.072Z,8.90
2023-12-31T11:59:04.489Z,8.80
2023-12-31T12:01:42.700Z,8.80
2023-12-31T12:04:18.751Z,8.80
2023-12-31T12:06:55.015Z,8.70
2023-12-31T12:09:34.152Z,8.70
2023-12-31T12:12:10.456Z,8.70
2023-12-31T12:14:46.425Z,8.70
2023-12-31T12:17:22.422Z,8.70
2023-12-31T12:19:58.499Z,8.60
2023-12-31T12:22:34.791Z,8.60
2023-12-31T12:25:10.882Z,8.60
2023-12-31T12:27:46.786Z,8.60
2023-12-31T12:30:23.074Z,8.60
2023-12-31T12:33:03.715Z,8.60
2023-12-31T12:35:43.173Z,8.60
2023-12-31T12:38:19.097Z,8.60
2023-12-31T12:41:02.419Z,8.70
2023-12-31T12:43:38.732Z,8.70
2023-12-31T12:46:14.687Z,8.70
2023-12-31T12:48:52.480Z,8.70
2023-12-31T12:51:28.778Z,8.80
2023-12-31T12:54:06.753Z,8.80
2023-12-31T12:56:42.702Z,8.80
2023-12-31T12:59:18.662Z,8.80
2023-12-31T13:01:54.885Z,8.80
2023-12-31T13:04:30.837Z,8.70
2023-12-31T13:07:08.086Z,8.80
2023-12-31T13:09:44.007Z,8.80
2023-12-31T13:12:20.108Z,8.90
2023-12-31T13:14:56.157Z,8.90
2023-12-31T13:17:32.188Z,8.90
2023-12-31T13:20:09.613Z,9.00
2023-12-31T13:22:45.647Z,8.90
2023-12-31T13:25:21.762Z,8.90
2023-12-31T13:27:57.869Z,9.00
2023-12-31T13:30:33.829Z,9.00
2023-12-31T13:33:10.234Z,9.00
2023-12-31T13:35:46.233Z,9.00
2023-12-31T13:38:24.308Z,9.00
2023-12-31T13:41:00.359Z,9.00
2023-12-31T13:43:36.365Z,9.10
2023-12-31T13:46:12.301Z,9.10
2023-12-31T13:48:48.465Z,9.10
2023-12-31T13:51:24.493Z,9.20
2023-12-31T13:54:00.386Z,9.20
2023-12-31T13:56:38.090Z,9.20
2023-12-31T13:59:14.316Z,9.20
2023-12-31T14:01:50.435Z,9.20
2023-12-31T14:04:26.626Z,9.20
2023-12-31T14:07:02.803Z,9.30
2023-12-31T14:09:39.904Z,9.30
2023-12-31T14:12:22.334Z,9.30
2023-12-31T14:14:58.293Z,9.20
2023-12-31T14:17:34.306Z,9.20
2023-12-31T14:20:11.142Z,9.10
2023-12-31T14:22:47.164Z,9.10
2023-12-31T14:25:23.132Z,9.10
2023-12-31T14:27:59.165Z,9.10
2023-12-31T14:30:36.935Z,9.10
2023-12-31T14:33:14.210Z,9.20
2023-12-31T14:35:50.200Z,9.20
2023-12-31T14:38:26.095Z,9.20
2023-12-31T14:41:02.829Z,9.20
2023-12-31T14:43:39.166Z,9.10
2023-12-31T14:46:15.073Z,9.10
2023-12-31T14:48:50.978Z,9.10
2023-12-31T14:51:27.070Z,9.10
2023-12-31T14:54:03.004Z,9.00
2023-12-31T14:56:39.075Z,9.00
2023-12-31T14:59:15.910Z,9.00
2023-12-31T15:01:52.086Z,9.00
2023-12-31T15:04:28.187Z,9.00
2023-12-31T15:07:04.333Z,8.90
2023-12-31T15:09:40.311Z,8.90
2023-12-31T15:12:16.218Z,8.90
2023-12-31T15:14:53.499Z,8.90
2023-12-31T15:17:29.766Z,8.90
2023-12-31T15:20:07.127Z,8.90
2023-12-31T15:22:43.850Z,8.80
2023-12-31T15:25:19.808Z,8.80
2023-12-31T15:27:56.147Z,8.80
2023-12-31T15:30:32.660Z,8.90
2023-12-31T15:33:10.308Z,8.90
2023-12-31T15:35:48.185Z,8.90
2023-12-31T15:38:25.326Z,8.80
2023-12-31T15:41:01.441Z,8.80
2023-12-31T15:43:41.092Z,8.80
2023-12-31T15:46:17.265Z,8.80
2023-12-31T15:48:53.423Z,8.80
2023-12-31T15:51:29.964Z,8.80
2023-12-31T15:54:05.913Z,8.80
2023-12-31T15:56:41.937Z,8.70
2023-12-31T15:59:17.843Z,8.80
2023-12-31T16:01:53.775Z,8.70
2023-12-31T16:04:32.028Z,8.80
2023-12-31T16:07:08.061Z,8.70
2023-12-31T16:09:44.623Z,8.70
2023-12-31T16:12:20.717Z,8.70
2023-12-31T16:14:56.688Z,8.70
2023-12-31T16:17:35.559Z,8.70
2023-12-31T16:20:12.440Z,8.60
2023-12-31T16:22:48.739Z,8.60
2023-12-31T16:25:25.064Z,8.70
2023-12-31T16:28:01.096Z,8.70
2023-12-31T16:30:37.880Z,8.70
2023-12-31T16:33:14.128Z,8.70
2023-12-31T16:35:50.244Z,8.70
2023-12-31T16:38:26.202Z,8.70
2023-12-31T16:41:02.288Z,8.70
2023-12-31T16:43:39.707Z,8.50
2023-12-31T16:46:15.767Z,8.50
2023-12-31T16:48:51.793Z,8.50
2023-12-31T16:51:30.320Z,8.50
2023-12-31T16:54:06.314Z,8.50
2023-12-31T16:56:44.305Z,8.50
2023-12-31T16:59:20.249Z,8.50
2023-12-31T17:01:56.282Z,8.50
2023-12-31T17:04:32.354Z,8.50
2023-12-31T17:07:08.345Z,8.50
2023-12-31T17:09:44.284Z,8.50
2023-12-31T17:12:20.448Z,8.50
2023-12-31T17:14:56.352Z,8.50
2023-12-31T17:17:32.754Z,8.50
2023-12-31T17:20:09.513Z,8.50
2023-12-31T17:22:45.515Z,8.40
2023-12-31T17:25:21.475Z,8.50
2023-12-31T17:27:57.375Z,8.50
2023-12-31T17:30:33.379Z,8.40
2023-12-31T17:33:09.360Z,8.40
2023-12-31T17:35:45.433Z,8.40
2023-12-31T17:38:21.332Z,8.30
2023-12-31T17:40:57.274Z,8.30
2023-12-31T17:43:33.217Z,8.30
2023-12-31T17:46:09.354Z,8.30
2023-12-31T17:48:45.372Z,8.30
2023-12-31T17:51:23.210Z,8.30
2023-12-31T17:53:59.140Z,8.40
2023-12-31T17:56:35.089Z,8.30
2023-12-31T17:59:11.249Z,8.20
2023-12-31T18:01:47.341Z,8.20
2023-12-31T18:04:23.563Z,8.20
2023-12-31T18:06:59.550Z,8.20
2023-12-31T18:09:35.442Z,8.20
2023-12-31T18:12:11.348Z,8.30
2023-12-31T18:14:47.395Z,8.20
2023-12-31T18:17:25.586Z,8.20
2023-12-31T18:20:01.517Z,8.10
2023-12-31T18:22:38.819Z,8.10
2023-12-31T18:25:14.766Z,8.10
2023-12-31T18:27:50.669Z,8.10
2023-12-31T18:30:32.045Z,8.10
2023-12-31T18:33:13.645Z,8.10
2023-12-31T18:35:49.825Z,8.00
2023-12-31T18:38:25.773Z,8.10
2023-12-31T18:41:01.779Z,8.10
2023-12-31T18:43:37.719Z,8.10
2023-12-31T18:46:14.015Z,8.00
2023-12-31T18:48:50.228Z,8.00
2023-12-31T18:51:30.075Z,8.00
2023-12-31T18:54:10.547Z,8.00
2023-12-31T18:56:46.486Z,8.00
2023-12-31T18:59:22.725Z,8.00
2023-12-31T19:01:58.861Z,8.10
2023-12-31T19:04:34.848Z,8.10
2023-12-31T19:07:10.782Z,8.10
2023-12-31T19:09:46.700Z,8.00
2023-12-31T19:12:22.644Z,8.00
2023-12-31T19:15:00.703Z,7.90
2023-12-31T19:17:37.030Z,7.90
2023-12-31T19:20:16.215Z,7.90
2023-12-31T19:22:53.726Z,7.90
2023-12-31T19:25:29.710Z,7.90
2023-12-31T19:28:06.707Z,7.90
2023-12-31T19:30:42.744Z,7.90
2023-12-31T19:33:18.784Z,7.90
2023-12-31T19:35:54.762Z,7.90
2023-12-31T19:38:31.506Z,7.90
2023-12-31T19:41:07.507Z,7.90
2023-12-31T19:44:04.635Z,7.90
2023-12-31T19:46:39.592Z,7.80
2023-12-31T19:49:16.646Z,7.90
2023-12-31T19:51:53.402Z,7.90
2023-12-31T19:54:29.477Z,7.80
2023-12-31T19:57:06.275Z,7.80
2023-12-31T19:59:42.241Z,7.80
2023-12-31T20:02:19.083Z,7.70
2023-12-31T20:04:55.063Z,7.70
2023-12-31T20:07:31.121Z,7.80
2023-12-31T20:10:07.748Z,7.80
2023-12-31T20:12:43.684Z,7.80
2023-12-31T20:15:19.597Z,7.80
2023-12-31T20:17:56.894Z,7.80
2023-12-31T20:20:33.265Z,7.70
2023-12-31T20:23:09.400Z,7.70
2023-12-31T20:25:47.355Z,7.70
2023-12-31T20:28:23.433Z,7.70
2023-12-31T20:30:59.350Z,7.60
2023-12-31T20:33:35.357Z,7.60
2023-12-31T20:36:12.310Z,7.60
2023-12-31T20:38:48.253Z,7.60
2023-12-31T20:41:24.237Z,7.60
2023-12-31T20:44:00.188Z,7.50
2023-12-31T20:46:37.208Z,7.50
2023-12-31T20:49:13.216Z,7.50
2023-12-31T20:51:49.170Z,7.40
2023-12-31T20:54:25.073Z,7.40
2023-12-31T20:57:01.366Z,7.40
2023-12-31T20:59:39.610Z,7.30
2023-12-31T21:02:15.610Z,7.40
2023-12-31T21:04:53.687Z,7.30
2023-12-31T21:07:31.842Z,7.20
2023-12-31T21:10:08.191Z,7.20
2023-12-31T21:12:44.228Z,7.20
2023-12-31T21:15:20.148Z,7.20
2023-12-31T21:17:56.145Z,7.20
2023-12-31T21:20:32.199Z,7.20
2023-12-31T21:23:08.223Z,7.10
2023-12-31T21:25:45.272Z,7.10
2023-12-31T21:28:25.704Z,7.10
2023-12-31T21:31:03.131Z,7.10
2023-12-31T21:33:39.382Z,7.10
2023-12-31T21:36:15.897Z,7.10
2023-12-31T21:38:52.285Z,7.10
2023-12-31T21:41:29.566Z,7.00
2023-12-31T21:44:12.680Z,7.00
2023-12-31T21:46:49.035Z,7.00
2023-12-31T21:49:25.168Z,7.00
2023-12-31T21:52:01.357Z,6.90
2023-12-31T21:54:37.271Z,6.90
2023-12-31T21:57:15.445Z,6.90
2023-12-31T22:00:00.395Z,6.90
2023-12-31T22:02:36.519Z,6.80
2023-12-31T22:05:12.625Z,6.80
2023-12-31T22:07:48.969Z,6.80
2023-12-31T22:10:24.901Z,6.80
2023-12-31T22:13:00.836Z,6.80
2023-12-31T22:15:39.325Z,6.80
2023-12-31T22:18:15.658Z,6.70
2023-12-31T22:20:51.692Z,6.70
2023-12-31T22:23:27.580Z,6.70
2023-12-31T22:26:03.823Z,6.70
2023-12-31T22:28:39.840Z,6.70
2023-12-31T22:31:15.787Z,6.70
2023-12-31T22:33:51.793Z,6.70
2023-12-31T22:36:27.744Z,6.60
2023-12-31T22:39:03.688Z,6.60
2023-12-31T22:41:39.606Z,6.60
2023-12-31T22:44:17.248Z,6.60
2023-12-31T22:46:53.228Z,6.60
2023-12-31T22:49:29.146Z,6.60
2023-12-31T22:52:06.834Z,6.60
2023-12-31T22:54:43.465Z,6.50
2023-12-31T22:57:19.448Z,6.60
2023-12-31T22:59:55.482Z,6.60
2023-12-31T23:02:31.468Z,6.60
2023-12-31T23:05:08.750Z,6.60
2023-12-31T23:07:44.800Z,6.60
2023-12-31T23:10:21.327Z,6.60
2023-12-31T23:12:57.235Z,6.60
2023-12-31T23:15:33.193Z,6.60
2023-12-31T23:18:09.354Z,6.60
2023-12-31T23:20:45.495Z,6.60
2023-12-31T23:23:21.400Z,6.60
2023-12-31T23:26:01.091Z,6.60
2023-12-31T23:28:38.534Z,6.60
2023-12-31T23:31:14.493Z,6.60
2023-12-31T23:33:50.510Z,6.70
2023-12-31T23:36:26.783Z,6.70
2023-12-31T23:39:02.708Z,6.70
2023-12-31T23:41:42.938Z,6.70
2023-12-31T23:44:25.278Z,6.80
2023-12-31T23:47:03.627Z,6.80
2023-12-31T23:49:40.556Z,6.80
2023-12-31T23:52:16.473Z,6.90
2023-12-31T23:54:53.409Z,6.80
2023-12-31T23:57:29.469Z,6.80
